sensor_id;sensor_type;location;lat;lon;timestamp;P1;durP1;ratioP1;P2;durP2;ratioP2
7110;SDS011;3597;42.650;23.386;2022-07-11T00:01:09;1.47;;;1.47;;
7110;SDS011;3597;42.650;23.386;2022-07-11T00:03:35;1.27;;;1.27;;
7110;SDS011;3597;42.650;23.386;2022-07-11T00:06:00;1.40;;;1.40;;
7110;SDS011;3597;42.650;23.386;2022-07-11T00:08:26;1.30;;;1.30;;
7110;SDS011;3597;42.650;23.386;2022-07-11T00:10:51;1.40;;;1.40;;
7110;SDS011;3597;42.650;23.386;2022-07-11T00:13:17;1.37;;;1.37;;
7110;SDS011;3597;42.650;23.386;2022-07-11T00:15:42;1.33;;;1.33;;
7110;SDS011;3597;42.650;23.386;2022-07-11T00:18:07;1.50;;;1.50;;
7110;SDS011;3597;42.650;23.386;2022-07-11T00:20:33;1.43;;;1.43;;
7110;SDS011;3597;42.650;23.386;2022-07-11T00:22:58;1.50;;;1.50;;
7110;SDS011;3597;42.650;23.386;2022-07-11T00:25:23;1.33;;;1.33;;
7110;SDS011;3597;42.650;23.386;2022-07-11T00:27:49;1.40;;;1.40;;
7110;SDS011;3597;42.650;23.386;2022-07-11T00:30:14;1.20;;;1.20;;
7110;SDS011;3597;42.650;23.386;2022-07-11T00:32:41;1.40;;;1.40;;
7110;SDS011;3597;42.650;23.386;2022-07-11T00:35:07;1.30;;;1.30;;
7110;SDS011;3597;42.650;23.386;2022-07-11T00:37:32;1.30;;;1.30;;
7110;SDS011;3597;42.650;23.386;2022-07-11T00:39:58;1.50;;;1.50;;
7110;SDS011;3597;42.650;23.386;2022-07-11T00:42:24;1.40;;;1.40;;
7110;SDS011;3597;42.650;23.386;2022-07-11T00:44:50;1.40;;;1.40;;
7110;SDS011;3597;42.650;23.386;2022-07-11T00:47:15;1.30;;;1.30;;
7110;SDS011;3597;42.650;23.386;2022-07-11T00:49:41;1.40;;;1.40;;
7110;SDS011;3597;42.650;23.386;2022-07-11T00:52:07;1.07;;;1.07;;
7110;SDS011;3597;42.650;23.386;2022-07-11T00:54:33;1.40;;;1.33;;
7110;SDS011;3597;42.650;23.386;2022-07-11T00:56:59;1.37;;;1.37;;
7110;SDS011;3597;42.650;23.386;2022-07-11T00:59:25;1.60;;;1.60;;
7110;SDS011;3597;42.650;23.386;2022-07-11T01:01:50;1.33;;;1.33;;
7110;SDS011;3597;42.650;23.386;2022-07-11T01:04:16;1.43;;;1.43;;
7110;SDS011;3597;42.650;23.386;2022-07-11T01:06:41;1.40;;;1.40;;
7110;SDS011;3597;42.650;23.386;2022-07-11T01:09:06;1.23;;;1.23;;
7110;SDS011;3597;42.650;23.386;2022-07-11T01:11:32;1.60;;;1.60;;
7110;SDS011;3597;42.650;23.386;2022-07-11T01:13:57;1.27;;;1.27;;
7110;SDS011;3597;42.650;23.386;2022-07-11T01:16:23;1.60;;;1.60;;
7110;SDS011;3597;42.650;23.386;2022-07-11T01:18:52;1.40;;;1.40;;
7110;SDS011;3597;42.650;23.386;2022-07-11T01:21:21;1.50;;;1.50;;
7110;SDS011;3597;42.650;23.386;2022-07-11T01:23:51;1.40;;;1.40;;
7110;SDS011;3597;42.650;23.386;2022-07-11T01:26:18;1.40;;;1.40;;
7110;SDS011;3597;42.650;23.386;2022-07-11T01:28:44;1.40;;;1.40;;
7110;SDS011;3597;42.650;23.386;2022-07-11T01:31:10;1.53;;;1.50;;
7110;SDS011;3597;42.650;23.386;2022-07-11T01:33:36;1.30;;;1.30;;
7110;SDS011;3597;42.650;23.386;2022-07-11T01:36:01;1.50;;;1.50;;
7110;SDS011;3597;42.650;23.386;2022-07-11T01:38:27;1.30;;;1.30;;
7110;SDS011;3597;42.650;23.386;2022-07-11T01:40:53;1.50;;;1.50;;
7110;SDS011;3597;42.650;23.386;2022-07-11T01:43:18;1.40;;;1.40;;
7110;SDS011;3597;42.650;23.386;2022-07-11T01:45:43;1.40;;;1.40;;
7110;SDS011;3597;42.650;23.386;2022-07-11T01:48:09;1.30;;;1.30;;
7110;SDS011;3597;42.650;23.386;2022-07-11T01:50:34;1.67;;;1.67;;
7110;SDS011;3597;42.650;23.386;2022-07-11T01:52:59;1.70;;;1.60;;
7110;SDS011;3597;42.650;23.386;2022-07-11T01:55:26;1.37;;;1.37;;
7110;SDS011;3597;42.650;23.386;2022-07-11T01:57:52;1.40;;;1.40;;
7110;SDS011;3597;42.650;23.386;2022-07-11T02:00:17;1.40;;;1.40;;
7110;SDS011;3597;42.650;23.386;2022-07-11T02:02:43;1.60;;;1.60;;
7110;SDS011;3597;42.650;23.386;2022-07-11T02:05:08;1.33;;;1.33;;
7110;SDS011;3597;42.650;23.386;2022-07-11T02:07:33;1.50;;;1.50;;
7110;SDS011;3597;42.650;23.386;2022-07-11T02:10:17;1.30;;;1.30;;
7110;SDS011;3597;42.650;23.386;2022-07-11T02:12:43;1.40;;;1.40;;
7110;SDS011;3597;42.650;23.386;2022-07-11T02:15:08;1.30;;;1.30;;
7110;SDS011;3597;42.650;23.386;2022-07-11T02:17:34;1.30;;;1.30;;
7110;SDS011;3597;42.650;23.386;2022-07-11T02:19:59;1.30;;;1.30;;
7110;SDS011;3597;42.650;23.386;2022-07-11T02:22:24;1.30;;;1.30;;
7110;SDS011;3597;42.650;23.386;2022-07-11T02:24:52;1.30;;;1.30;;
7110;SDS011;3597;42.650;23.386;2022-07-11T02:27:17;1.30;;;1.30;;
7110;SDS011;3597;42.650;23.386;2022-07-11T02:29:42;1.30;;;1.30;;
7110;SDS011;3597;42.650;23.386;2022-07-11T02:32:08;1.20;;;1.20;;
7110;SDS011;3597;42.650;23.386;2022-07-11T02:34:33;1.30;;;1.30;;
7110;SDS011;3597;42.650;23.386;2022-07-11T02:36:58;1.10;;;1.10;;
7110;SDS011;3597;42.650;23.386;2022-07-11T02:39:24;1.20;;;1.20;;
7110;SDS011;3597;42.650;23.386;2022-07-11T02:41:49;1.27;;;1.27;;
7110;SDS011;3597;42.650;23.386;2022-07-11T02:44:14;1.27;;;1.27;;
7110;SDS011;3597;42.650;23.386;2022-07-11T02:46:40;1.60;;;1.50;;
7110;SDS011;3597;42.650;23.386;2022-07-11T02:49:05;1.30;;;1.30;;
7110;SDS011;3597;42.650;23.386;2022-07-11T02:51:30;1.30;;;1.30;;
7110;SDS011;3597;42.650;23.386;2022-07-11T02:53:56;1.30;;;1.30;;
7110;SDS011;3597;42.650;23.386;2022-07-11T02:56:21;1.40;;;1.40;;
7110;SDS011;3597;42.650;23.386;2022-07-11T02:58:47;1.50;;;1.50;;
7110;SDS011;3597;42.650;23.386;2022-07-11T03:01:12;1.47;;;1.47;;
7110;SDS011;3597;42.650;23.386;2022-07-11T03:03:37;1.30;;;1.30;;
7110;SDS011;3597;42.650;23.386;2022-07-11T03:06:03;1.60;;;1.60;;
7110;SDS011;3597;42.650;23.386;2022-07-11T03:08:28;1.40;;;1.40;;
7110;SDS011;3597;42.650;23.386;2022-07-11T03:10:54;1.50;;;1.50;;
7110;SDS011;3597;42.650;23.386;2022-07-11T03:13:19;1.40;;;1.40;;
7110;SDS011;3597;42.650;23.386;2022-07-11T03:15:45;1.40;;;1.40;;
7110;SDS011;3597;42.650;23.386;2022-07-11T03:18:10;1.50;;;1.50;;
7110;SDS011;3597;42.650;23.386;2022-07-11T03:20:35;1.83;;;1.83;;
7110;SDS011;3597;42.650;23.386;2022-07-11T03:23:01;1.70;;;1.70;;
7110;SDS011;3597;42.650;23.386;2022-07-11T03:25:26;1.60;;;1.60;;
7110;SDS011;3597;42.650;23.386;2022-07-11T03:27:52;1.60;;;1.60;;
7110;SDS011;3597;42.650;23.386;2022-07-11T03:30:17;1.60;;;1.60;;
7110;SDS011;3597;42.650;23.386;2022-07-11T03:32:42;1.60;;;1.60;;
7110;SDS011;3597;42.650;23.386;2022-07-11T03:35:08;1.47;;;1.47;;
7110;SDS011;3597;42.650;23.386;2022-07-11T03:37:52;1.60;;;1.60;;
7110;SDS011;3597;42.650;23.386;2022-07-11T03:40:17;1.70;;;1.70;;
7110;SDS011;3597;42.650;23.386;2022-07-11T03:42:43;1.53;;;1.53;;
7110;SDS011;3597;42.650;23.386;2022-07-11T03:45:09;1.50;;;1.50;;
7110;SDS011;3597;42.650;23.386;2022-07-11T03:47:35;1.70;;;1.70;;
7110;SDS011;3597;42.650;23.386;2022-07-11T03:50:01;1.40;;;1.40;;
7110;SDS011;3597;42.650;23.386;2022-07-11T03:52:27;1.50;;;1.50;;
7110;SDS011;3597;42.650;23.386;2022-07-11T03:54:53;1.50;;;1.50;;
7110;SDS011;3597;42.650;23.386;2022-07-11T03:57:18;1.40;;;1.40;;
7110;SDS011;3597;42.650;23.386;2022-07-11T03:59:43;1.60;;;1.60;;
7110;SDS011;3597;42.650;23.386;2022-07-11T04:02:09;1.40;;;1.40;;
7110;SDS011;3597;42.650;23.386;2022-07-11T04:04:34;1.50;;;1.50;;
7110;SDS011;3597;42.650;23.386;2022-07-11T04:07:00;1.30;;;1.30;;
7110;SDS011;3597;42.650;23.386;2022-07-11T04:09:25;1.57;;;1.57;;
7110;SDS011;3597;42.650;23.386;2022-07-11T04:11:51;1.30;;;1.30;;
7110;SDS011;3597;42.650;23.386;2022-07-11T04:14:16;1.60;;;1.60;;
7110;SDS011;3597;42.650;23.386;2022-07-11T04:16:41;1.53;;;1.53;;
7110;SDS011;3597;42.650;23.386;2022-07-11T04:19:07;1.97;;;1.83;;
7110;SDS011;3597;42.650;23.386;2022-07-11T04:21:32;1.37;;;1.37;;
7110;SDS011;3597;42.650;23.386;2022-07-11T04:23:58;1.30;;;1.30;;
7110;SDS011;3597;42.650;23.386;2022-07-11T04:26:23;1.50;;;1.50;;
7110;SDS011;3597;42.650;23.386;2022-07-11T04:28:48;1.63;;;1.63;;
7110;SDS011;3597;42.650;23.386;2022-07-11T04:31:14;1.60;;;1.60;;
7110;SDS011;3597;42.650;23.386;2022-07-11T04:33:39;1.70;;;1.70;;
7110;SDS011;3597;42.650;23.386;2022-07-11T04:36:05;1.60;;;1.60;;
7110;SDS011;3597;42.650;23.386;2022-07-11T04:38:30;1.30;;;1.30;;
7110;SDS011;3597;42.650;23.386;2022-07-11T04:40:55;1.40;;;1.40;;
7110;SDS011;3597;42.650;23.386;2022-07-11T04:43:21;1.23;;;1.23;;
7110;SDS011;3597;42.650;23.386;2022-07-11T04:45:46;1.73;;;1.73;;
7110;SDS011;3597;42.650;23.386;2022-07-11T04:48:12;1.70;;;1.70;;
7110;SDS011;3597;42.650;23.386;2022-07-11T04:50:37;1.63;;;1.63;;
7110;SDS011;3597;42.650;23.386;2022-07-11T04:53:02;1.73;;;1.73;;
7110;SDS011;3597;42.650;23.386;2022-07-11T04:55:28;1.30;;;1.30;;
7110;SDS011;3597;42.650;23.386;2022-07-11T04:57:54;1.47;;;1.47;;
7110;SDS011;3597;42.650;23.386;2022-07-11T05:00:20;1.67;;;1.67;;
7110;SDS011;3597;42.650;23.386;2022-07-11T05:02:46;1.83;;;1.83;;
7110;SDS011;3597;42.650;23.386;2022-07-11T05:05:12;2.20;;;2.20;;
7110;SDS011;3597;42.650;23.386;2022-07-11T05:07:38;2.03;;;2.03;;
7110;SDS011;3597;42.650;23.386;2022-07-11T05:10:04;2.00;;;2.00;;
7110;SDS011;3597;42.650;23.386;2022-07-11T05:12:30;1.80;;;1.80;;
7110;SDS011;3597;42.650;23.386;2022-07-11T05:14:55;1.70;;;1.70;;
7110;SDS011;3597;42.650;23.386;2022-07-11T05:17:23;1.70;;;1.70;;
7110;SDS011;3597;42.650;23.386;2022-07-11T05:19:49;1.80;;;1.80;;
7110;SDS011;3597;42.650;23.386;2022-07-11T05:22:15;2.00;;;2.00;;
7110;SDS011;3597;42.650;23.386;2022-07-11T05:24:40;2.00;;;2.00;;
7110;SDS011;3597;42.650;23.386;2022-07-11T05:27:05;1.50;;;1.50;;
7110;SDS011;3597;42.650;23.386;2022-07-11T05:29:31;1.63;;;1.63;;
7110;SDS011;3597;42.650;23.386;2022-07-11T05:31:56;1.53;;;1.53;;
7110;SDS011;3597;42.650;23.386;2022-07-11T05:34:21;1.20;;;1.20;;
7110;SDS011;3597;42.650;23.386;2022-07-11T05:36:47;1.60;;;1.60;;
7110;SDS011;3597;42.650;23.386;2022-07-11T05:39:12;1.70;;;1.70;;
7110;SDS011;3597;42.650;23.386;2022-07-11T05:41:38;2.13;;;2.10;;
7110;SDS011;3597;42.650;23.386;2022-07-11T05:44:03;2.10;;;2.10;;
7110;SDS011;3597;42.650;23.386;2022-07-11T05:46:29;2.70;;;2.57;;
7110;SDS011;3597;42.650;23.386;2022-07-11T05:48:54;4.00;;;4.00;;
7110;SDS011;3597;42.650;23.386;2022-07-11T05:51:19;2.40;;;2.40;;
7110;SDS011;3597;42.650;23.386;2022-07-11T05:53:45;2.60;;;2.60;;
7110;SDS011;3597;42.650;23.386;2022-07-11T05:56:10;2.50;;;2.50;;
7110;SDS011;3597;42.650;23.386;2022-07-11T05:58:35;1.80;;;1.80;;
7110;SDS011;3597;42.650;23.386;2022-07-11T06:01:01;1.80;;;1.80;;
7110;SDS011;3597;42.650;23.386;2022-07-11T06:03:26;1.43;;;1.43;;
7110;SDS011;3597;42.650;23.386;2022-07-11T06:05:51;1.50;;;1.40;;
7110;SDS011;3597;42.650;23.386;2022-07-11T06:08:17;1.30;;;1.30;;
7110;SDS011;3597;42.650;23.386;2022-07-11T06:11:01;1.40;;;1.40;;
7110;SDS011;3597;42.650;23.386;2022-07-11T06:13:27;1.23;;;1.23;;
7110;SDS011;3597;42.650;23.386;2022-07-11T06:15:54;1.40;;;1.40;;
7110;SDS011;3597;42.650;23.386;2022-07-11T06:18:20;1.43;;;1.43;;
7110;SDS011;3597;42.650;23.386;2022-07-11T06:20:45;1.30;;;1.30;;
7110;SDS011;3597;42.650;23.386;2022-07-11T06:23:11;1.23;;;1.23;;
7110;SDS011;3597;42.650;23.386;2022-07-11T06:25:36;1.63;;;1.53;;
7110;SDS011;3597;42.650;23.386;2022-07-11T06:28:03;1.83;;;1.83;;
7110;SDS011;3597;42.650;23.386;2022-07-11T06:30:29;1.73;;;1.73;;
7110;SDS011;3597;42.650;23.386;2022-07-11T06:32:56;1.30;;;1.30;;
7110;SDS011;3597;42.650;23.386;2022-07-11T06:35:22;1.40;;;1.40;;
7110;SDS011;3597;42.650;23.386;2022-07-11T06:37:47;1.20;;;1.20;;
7110;SDS011;3597;42.650;23.386;2022-07-11T06:40:13;1.30;;;1.30;;
7110;SDS011;3597;42.650;23.386;2022-07-11T06:42:38;1.33;;;1.33;;
7110;SDS011;3597;42.650;23.386;2022-07-11T06:45:04;1.37;;;1.37;;
7110;SDS011;3597;42.650;23.386;2022-07-11T06:47:29;1.10;;;1.10;;
7110;SDS011;3597;42.650;23.386;2022-07-11T06:49:55;1.10;;;1.10;;
7110;SDS011;3597;42.650;23.386;2022-07-11T06:52:20;1.10;;;1.10;;
7110;SDS011;3597;42.650;23.386;2022-07-11T06:54:45;1.30;;;1.30;;
7110;SDS011;3597;42.650;23.386;2022-07-11T06:57:11;0.97;;;0.97;;
7110;SDS011;3597;42.650;23.386;2022-07-11T06:59:36;1.20;;;1.20;;
7110;SDS011;3597;42.650;23.386;2022-07-11T07:02:01;1.33;;;1.33;;
7110;SDS011;3597;42.650;23.386;2022-07-11T07:04:27;1.20;;;1.20;;
7110;SDS011;3597;42.650;23.386;2022-07-11T07:06:52;1.27;;;1.27;;
7110;SDS011;3597;42.650;23.386;2022-07-11T07:09:18;1.20;;;1.20;;
7110;SDS011;3597;42.650;23.386;2022-07-11T07:11:43;1.30;;;1.30;;
7110;SDS011;3597;42.650;23.386;2022-07-11T07:14:08;1.10;;;1.10;;
7110;SDS011;3597;42.650;23.386;2022-07-11T07:16:34;1.20;;;1.20;;
7110;SDS011;3597;42.650;23.386;2022-07-11T07:19:00;1.30;;;1.30;;
7110;SDS011;3597;42.650;23.386;2022-07-11T07:21:25;1.30;;;1.30;;
7110;SDS011;3597;42.650;23.386;2022-07-11T07:23:51;1.23;;;1.23;;
7110;SDS011;3597;42.650;23.386;2022-07-11T07:26:16;1.30;;;1.30;;
7110;SDS011;3597;42.650;23.386;2022-07-11T07:28:41;1.30;;;1.30;;
7110;SDS011;3597;42.650;23.386;2022-07-11T07:31:07;1.40;;;1.40;;
7110;SDS011;3597;42.650;23.386;2022-07-11T07:33:32;1.30;;;1.30;;
7110;SDS011;3597;42.650;23.386;2022-07-11T07:35:58;1.67;;;1.67;;
7110;SDS011;3597;42.650;23.386;2022-07-11T07:38:23;1.50;;;1.50;;
7110;SDS011;3597;42.650;23.386;2022-07-11T07:40:48;1.30;;;1.30;;
7110;SDS011;3597;42.650;23.386;2022-07-11T07:43:14;1.87;;;1.87;;
7110;SDS011;3597;42.650;23.386;2022-07-11T07:45:39;1.30;;;1.30;;
7110;SDS011;3597;42.650;23.386;2022-07-11T07:48:04;1.60;;;1.60;;
7110;SDS011;3597;42.650;23.386;2022-07-11T07:50:30;1.50;;;1.50;;
7110;SDS011;3597;42.650;23.386;2022-07-11T07:52:55;2.83;;;1.60;;
7110;SDS011;3597;42.650;23.386;2022-07-11T07:55:20;1.53;;;1.53;;
7110;SDS011;3597;42.650;23.386;2022-07-11T07:57:46;1.87;;;1.87;;
7110;SDS011;3597;42.650;23.386;2022-07-11T08:00:12;1.60;;;1.60;;
7110;SDS011;3597;42.650;23.386;2022-07-11T08:02:56;1.90;;;1.90;;
7110;SDS011;3597;42.650;23.386;2022-07-11T08:05:28;1.87;;;1.87;;
7110;SDS011;3597;42.650;23.386;2022-07-11T08:07:54;1.67;;;1.67;;
7110;SDS011;3597;42.650;23.386;2022-07-11T08:10:19;1.80;;;1.80;;
7110;SDS011;3597;42.650;23.386;2022-07-11T08:12:45;1.73;;;1.73;;
7110;SDS011;3597;42.650;23.386;2022-07-11T08:15:10;1.90;;;1.90;;
7110;SDS011;3597;42.650;23.386;2022-07-11T08:17:36;1.77;;;1.77;;
7110;SDS011;3597;42.650;23.386;2022-07-11T08:20:01;1.80;;;1.80;;
7110;SDS011;3597;42.650;23.386;2022-07-11T08:22:27;1.90;;;1.90;;
7110;SDS011;3597;42.650;23.386;2022-07-11T08:24:52;1.80;;;1.80;;
7110;SDS011;3597;42.650;23.386;2022-07-11T08:27:17;1.90;;;1.90;;
7110;SDS011;3597;42.650;23.386;2022-07-11T08:29:43;1.90;;;1.90;;
7110;SDS011;3597;42.650;23.386;2022-07-11T08:32:08;1.90;;;1.90;;
7110;SDS011;3597;42.650;23.386;2022-07-11T08:34:34;2.00;;;2.00;;
7110;SDS011;3597;42.650;23.386;2022-07-11T08:36:59;2.10;;;1.90;;
7110;SDS011;3597;42.650;23.386;2022-07-11T08:39:25;1.70;;;1.70;;
7110;SDS011;3597;42.650;23.386;2022-07-11T08:41:50;2.17;;;2.17;;
7110;SDS011;3597;42.650;23.386;2022-07-11T08:44:16;2.00;;;2.00;;
7110;SDS011;3597;42.650;23.386;2022-07-11T08:46:41;2.00;;;2.00;;
7110;SDS011;3597;42.650;23.386;2022-07-11T08:49:07;1.83;;;1.83;;
7110;SDS011;3597;42.650;23.386;2022-07-11T08:51:32;1.93;;;1.93;;
7110;SDS011;3597;42.650;23.386;2022-07-11T08:54:01;1.80;;;1.80;;
7110;SDS011;3597;42.650;23.386;2022-07-11T08:56:26;1.80;;;1.80;;
7110;SDS011;3597;42.650;23.386;2022-07-11T08:58:52;1.90;;;1.90;;
7110;SDS011;3597;42.650;23.386;2022-07-11T09:01:18;1.73;;;1.73;;
7110;SDS011;3597;42.650;23.386;2022-07-11T09:03:45;1.70;;;1.70;;
7110;SDS011;3597;42.650;23.386;2022-07-11T09:06:11;2.03;;;2.03;;
7110;SDS011;3597;42.650;23.386;2022-07-11T09:08:37;1.90;;;1.90;;
7110;SDS011;3597;42.650;23.386;2022-07-11T09:11:05;2.00;;;2.00;;
7110;SDS011;3597;42.650;23.386;2022-07-11T09:13:31;1.60;;;1.60;;
7110;SDS011;3597;42.650;23.386;2022-07-11T09:16:00;2.17;;;2.17;;
7110;SDS011;3597;42.650;23.386;2022-07-11T09:18:34;1.70;;;1.70;;
7110;SDS011;3597;42.650;23.386;2022-07-11T09:21:08;1.97;;;1.97;;
7110;SDS011;3597;42.650;23.386;2022-07-11T09:23:57;1.80;;;1.80;;
7110;SDS011;3597;42.650;23.386;2022-07-11T09:26:49;1.80;;;1.80;;
7110;SDS011;3597;42.650;23.386;2022-07-11T09:29:17;1.70;;;1.70;;
7110;SDS011;3597;42.650;23.386;2022-07-11T09:31:46;2.00;;;2.00;;
7110;SDS011;3597;42.650;23.386;2022-07-11T09:34:12;1.77;;;1.77;;
7110;SDS011;3597;42.650;23.386;2022-07-11T09:39:04;1.70;;;1.70;;
7110;SDS011;3597;42.650;23.386;2022-07-11T09:41:31;1.70;;;1.70;;
7110;SDS011;3597;42.650;23.386;2022-07-11T09:46:34;1.97;;;1.97;;
7110;SDS011;3597;42.650;23.386;2022-07-11T09:49:00;1.60;;;1.60;;
7110;SDS011;3597;42.650;23.386;2022-07-11T09:51:26;1.80;;;1.80;;
7110;SDS011;3597;42.650;23.386;2022-07-11T09:53:53;1.90;;;1.80;;
7110;SDS011;3597;42.650;23.386;2022-07-11T09:56:25;1.60;;;1.60;;
7110;SDS011;3597;42.650;23.386;2022-07-11T09:59:03;1.50;;;1.50;;
7110;SDS011;3597;42.650;23.386;2022-07-11T10:01:30;2.03;;;2.03;;
7110;SDS011;3597;42.650;23.386;2022-07-11T10:03:56;1.63;;;1.63;;
7110;SDS011;3597;42.650;23.386;2022-07-11T10:06:22;1.70;;;1.70;;
7110;SDS011;3597;42.650;23.386;2022-07-11T10:08:48;1.70;;;1.70;;
7110;SDS011;3597;42.650;23.386;2022-07-11T10:11:15;1.70;;;1.70;;
7110;SDS011;3597;42.650;23.386;2022-07-11T10:13:41;1.70;;;1.70;;
7110;SDS011;3597;42.650;23.386;2022-07-11T10:16:08;1.50;;;1.50;;
7110;SDS011;3597;42.650;23.386;2022-07-11T10:18:43;1.60;;;1.60;;
7110;SDS011;3597;42.650;23.386;2022-07-11T10:21:15;1.70;;;1.70;;
7110;SDS011;3597;42.650;23.386;2022-07-11T10:23:50;1.73;;;1.73;;
7110;SDS011;3597;42.650;23.386;2022-07-11T10:29:17;1.70;;;1.70;;
7110;SDS011;3597;42.650;23.386;2022-07-11T10:32:03;1.90;;;1.80;;
7110;SDS011;3597;42.650;23.386;2022-07-11T10:34:29;1.60;;;1.60;;
7110;SDS011;3597;42.650;23.386;2022-07-11T10:36:58;1.70;;;1.70;;
7110;SDS011;3597;42.650;23.386;2022-07-11T10:39:25;1.70;;;1.70;;
7110;SDS011;3597;42.650;23.386;2022-07-11T10:41:51;1.60;;;1.60;;
7110;SDS011;3597;42.650;23.386;2022-07-11T10:44:17;1.30;;;1.30;;
7110;SDS011;3597;42.650;23.386;2022-07-11T10:46:43;1.60;;;1.60;;
7110;SDS011;3597;42.650;23.386;2022-07-11T10:54:17;1.50;;;1.50;;
7110;SDS011;3597;42.650;23.386;2022-07-11T10:59:27;1.43;;;1.43;;
7110;SDS011;3597;42.650;23.386;2022-07-11T11:04:51;1.50;;;1.50;;
7110;SDS011;3597;42.650;23.386;2022-07-11T11:09:59;1.63;;;1.63;;
7110;SDS011;3597;42.650;23.386;2022-07-11T11:23:25;1.30;;;1.30;;
7110;SDS011;3597;42.650;23.386;2022-07-11T11:25:52;1.47;;;1.37;;
7110;SDS011;3597;42.650;23.386;2022-07-11T11:28:20;1.20;;;1.20;;
7110;SDS011;3597;42.650;23.386;2022-07-11T11:30:53;1.23;;;1.23;;
7110;SDS011;3597;42.650;23.386;2022-07-11T11:33:19;1.10;;;1.10;;
7110;SDS011;3597;42.650;23.386;2022-07-11T11:35:44;1.20;;;1.20;;
7110;SDS011;3597;42.650;23.386;2022-07-11T11:38:10;1.33;;;1.33;;
7110;SDS011;3597;42.650;23.386;2022-07-11T11:40:36;1.10;;;1.10;;
7110;SDS011;3597;42.650;23.386;2022-07-11T11:43:01;1.30;;;1.30;;
7110;SDS011;3597;42.650;23.386;2022-07-11T11:45:27;1.13;;;1.13;;
7110;SDS011;3597;42.650;23.386;2022-07-11T11:47:52;1.50;;;1.50;;
7110;SDS011;3597;42.650;23.386;2022-07-11T11:50:18;1.30;;;1.30;;
7110;SDS011;3597;42.650;23.386;2022-07-11T11:52:44;1.30;;;1.30;;
7110;SDS011;3597;42.650;23.386;2022-07-11T11:55:09;1.15;;;1.15;;
7110;SDS011;3597;42.650;23.386;2022-07-11T11:57:36;1.43;;;1.43;;
7110;SDS011;3597;42.650;23.386;2022-07-11T12:00:03;1.50;;;1.50;;
7110;SDS011;3597;42.650;23.386;2022-07-11T12:02:29;1.30;;;1.30;;
7110;SDS011;3597;42.650;23.386;2022-07-11T12:04:58;1.30;;;1.30;;
7110;SDS011;3597;42.650;23.386;2022-07-11T12:07:24;1.25;;;1.25;;
7110;SDS011;3597;42.650;23.386;2022-07-11T12:09:52;1.50;;;1.50;;
7110;SDS011;3597;42.650;23.386;2022-07-11T12:12:23;1.40;;;1.40;;
7110;SDS011;3597;42.650;23.386;2022-07-11T12:18:00;1.90;;;1.90;;
7110;SDS011;3597;42.650;23.386;2022-07-11T12:20:41;1.90;;;1.90;;
7110;SDS011;3597;42.650;23.386;2022-07-11T12:23:08;1.60;;;1.60;;
7110;SDS011;3597;42.650;23.386;2022-07-11T12:25:34;1.80;;;1.80;;
7110;SDS011;3597;42.650;23.386;2022-07-11T12:28:00;1.70;;;1.70;;
7110;SDS011;3597;42.650;23.386;2022-07-11T12:30:26;1.70;;;1.70;;
7110;SDS011;3597;42.650;23.386;2022-07-11T12:35:58;2.30;;;2.30;;
7110;SDS011;3597;42.650;23.386;2022-07-11T12:41:16;1.80;;;1.80;;
7110;SDS011;3597;42.650;23.386;2022-07-11T12:43:51;1.77;;;1.77;;
7110;SDS011;3597;42.650;23.386;2022-07-11T12:46:36;1.70;;;1.70;;
7110;SDS011;3597;42.650;23.386;2022-07-11T12:49:06;1.90;;;1.80;;
7110;SDS011;3597;42.650;23.386;2022-07-11T12:51:33;1.90;;;1.90;;
7110;SDS011;3597;42.650;23.386;2022-07-11T12:54:04;1.77;;;1.77;;
7110;SDS011;3597;42.650;23.386;2022-07-11T12:56:31;1.90;;;1.90;;
7110;SDS011;3597;42.650;23.386;2022-07-11T12:59:00;1.93;;;1.93;;
7110;SDS011;3597;42.650;23.386;2022-07-11T13:01:26;1.80;;;1.80;;
7110;SDS011;3597;42.650;23.386;2022-07-11T13:03:52;2.07;;;2.07;;
7110;SDS011;3597;42.650;23.386;2022-07-11T13:06:17;1.97;;;1.97;;
7110;SDS011;3597;42.650;23.386;2022-07-11T13:09:03;1.93;;;1.93;;
7110;SDS011;3597;42.650;23.386;2022-07-11T13:11:28;1.73;;;1.73;;
7110;SDS011;3597;42.650;23.386;2022-07-11T13:13:56;2.00;;;2.00;;
7110;SDS011;3597;42.650;23.386;2022-07-11T13:16:21;1.90;;;1.90;;
7110;SDS011;3597;42.650;23.386;2022-07-11T13:18:47;1.90;;;1.90;;
7110;SDS011;3597;42.650;23.386;2022-07-11T13:21:13;2.10;;;2.10;;
7110;SDS011;3597;42.650;23.386;2022-07-11T13:23:39;2.00;;;2.00;;
7110;SDS011;3597;42.650;23.386;2022-07-11T13:26:05;2.20;;;2.10;;
7110;SDS011;3597;42.650;23.386;2022-07-11T13:28:31;2.13;;;2.13;;
7110;SDS011;3597;42.650;23.386;2022-07-11T13:30:57;2.00;;;2.00;;
7110;SDS011;3597;42.650;23.386;2022-07-11T13:33:23;2.13;;;2.13;;
7110;SDS011;3597;42.650;23.386;2022-07-11T13:35:50;2.07;;;2.07;;
7110;SDS011;3597;42.650;23.386;2022-07-11T13:38:17;2.03;;;2.03;;
7110;SDS011;3597;42.650;23.386;2022-07-11T13:40:44;1.90;;;1.90;;
7110;SDS011;3597;42.650;23.386;2022-07-11T13:43:10;2.23;;;2.23;;
7110;SDS011;3597;42.650;23.386;2022-07-11T13:45:37;2.27;;;2.27;;
7110;SDS011;3597;42.650;23.386;2022-07-11T13:48:03;2.30;;;2.30;;
7110;SDS011;3597;42.650;23.386;2022-07-11T13:50:29;2.23;;;2.23;;
7110;SDS011;3597;42.650;23.386;2022-07-11T13:52:55;2.00;;;2.00;;
7110;SDS011;3597;42.650;23.386;2022-07-11T13:55:21;2.30;;;2.30;;
7110;SDS011;3597;42.650;23.386;2022-07-11T13:57:55;2.20;;;2.20;;
7110;SDS011;3597;42.650;23.386;2022-07-11T14:00:21;2.00;;;2.00;;
7110;SDS011;3597;42.650;23.386;2022-07-11T14:02:47;2.40;;;2.40;;
7110;SDS011;3597;42.650;23.386;2022-07-11T14:05:13;2.07;;;2.07;;
7110;SDS011;3597;42.650;23.386;2022-07-11T14:07:39;2.20;;;2.20;;
7110;SDS011;3597;42.650;23.386;2022-07-11T14:10:04;2.23;;;2.23;;
7110;SDS011;3597;42.650;23.386;2022-07-11T14:12:30;2.13;;;2.13;;
7110;SDS011;3597;42.650;23.386;2022-07-11T14:14:56;2.50;;;2.50;;
7110;SDS011;3597;42.650;23.386;2022-07-11T14:17:22;2.50;;;2.40;;
7110;SDS011;3597;42.650;23.386;2022-07-11T14:19:48;2.43;;;2.43;;
7110;SDS011;3597;42.650;23.386;2022-07-11T14:22:13;2.27;;;2.27;;
7110;SDS011;3597;42.650;23.386;2022-07-11T14:24:38;2.50;;;2.50;;
7110;SDS011;3597;42.650;23.386;2022-07-11T14:27:04;2.10;;;2.10;;
7110;SDS011;3597;42.650;23.386;2022-07-11T14:29:30;2.53;;;2.37;;
7110;SDS011;3597;42.650;23.386;2022-07-11T14:31:56;2.50;;;2.50;;
7110;SDS011;3597;42.650;23.386;2022-07-11T14:34:22;2.50;;;2.50;;
7110;SDS011;3597;42.650;23.386;2022-07-11T14:36:48;2.50;;;2.50;;
7110;SDS011;3597;42.650;23.386;2022-07-11T14:39:14;2.47;;;2.47;;
7110;SDS011;3597;42.650;23.386;2022-07-11T14:41:39;2.83;;;2.73;;
7110;SDS011;3597;42.650;23.386;2022-07-11T14:44:06;2.47;;;2.47;;
7110;SDS011;3597;42.650;23.386;2022-07-11T14:46:31;2.50;;;2.50;;
7110;SDS011;3597;42.650;23.386;2022-07-11T14:48:57;2.33;;;2.33;;
7110;SDS011;3597;42.650;23.386;2022-07-11T14:51:22;2.57;;;2.57;;
7110;SDS011;3597;42.650;23.386;2022-07-11T14:53:48;2.50;;;2.50;;
7110;SDS011;3597;42.650;23.386;2022-07-11T14:56:13;2.93;;;2.93;;
7110;SDS011;3597;42.650;23.386;2022-07-11T14:58:38;2.70;;;2.70;;
7110;SDS011;3597;42.650;23.386;2022-07-11T15:01:06;2.60;;;2.60;;
7110;SDS011;3597;42.650;23.386;2022-07-11T15:03:31;2.77;;;2.77;;
7110;SDS011;3597;42.650;23.386;2022-07-11T15:06:02;2.73;;;2.73;;
7110;SDS011;3597;42.650;23.386;2022-07-11T15:08:29;2.80;;;2.70;;
7110;SDS011;3597;42.650;23.386;2022-07-11T15:11:13;2.67;;;2.67;;
7110;SDS011;3597;42.650;23.386;2022-07-11T15:13:57;2.80;;;2.80;;
7110;SDS011;3597;42.650;23.386;2022-07-11T15:16:23;2.63;;;2.63;;
7110;SDS011;3597;42.650;23.386;2022-07-11T15:18:48;2.80;;;2.80;;
7110;SDS011;3597;42.650;23.386;2022-07-11T15:21:13;3.10;;;3.10;;
7110;SDS011;3597;42.650;23.386;2022-07-11T15:23:39;3.27;;;3.27;;
7110;SDS011;3597;42.650;23.386;2022-07-11T15:26:04;2.90;;;2.90;;
7110;SDS011;3597;42.650;23.386;2022-07-11T15:28:30;2.90;;;2.90;;
7110;SDS011;3597;42.650;23.386;2022-07-11T15:30:55;2.70;;;2.70;;
7110;SDS011;3597;42.650;23.386;2022-07-11T15:33:21;2.73;;;2.73;;
7110;SDS011;3597;42.650;23.386;2022-07-11T15:35:50;2.90;;;2.90;;
7110;SDS011;3597;42.650;23.386;2022-07-11T15:38:17;3.07;;;3.00;;